Time;durP1;ratioP1;P1;durP2;ratioP2;P2;SDS_P1;SDS_P2;PMS_P1;PMS_P2;Temp;Humidity;BMP_temperature;BMP_pressure;BME280_temperature;BME280_humidity;BME280_pressure;Samples;Min_cycle;Max_cycle;Signal;HPM_P1;HPM_P2
2021/12/04 00:02:19;;;;;;;11.60;8.93;;;;;;;0.34;100.00;99874.34;4988561;28;20283;-56
2021/12/04 00:04:48;;;;;;;13.00;9.23;;;;;;;0.31;100.00;99867.38;4986778;28;20241;-59
2021/12/04 00:07:15;;;;;;;11.07;9.67;;;;;;;0.42;100.00;99855.66;4991443;28;20237;-58
2021/12/04 00:09:45;;;;;;;12.93;9.50;;;;;;;0.35;100.00;99853.75;4992312;28;20246;-56
2021/12/04 00:12:11;;;;;;;17.67;9.77;;;;;;;0.34;100.00;99859.72;4984626;28;20236;-56
2021/12/04 00:14:38;;;;;;;13.17;9.53;;;;;;;0.38;100.00;99858.97;4989026;28;20247;-55
2021/12/04 00:17:06;;;;;;;10.83;8.97;;;;;;;0.40;100.00;99862.47;4979608;28;20244;-54
2021/12/04 00:19:33;;;;;;;11.93;9.40;;;;;;;0.45;100.00;99866.03;4982816;28;20295;-57
2021/12/04 00:22:00;;;;;;;9.93;8.47;;;;;;;0.44;100.00;99858.25;4985697;28;20236;-56
2021/12/04 00:24:26;;;;;;;10.57;7.90;;;;;;;0.46;100.00;99854.88;4988072;28;20260;-56
2021/12/04 00:26:54;;;;;;;11.83;8.17;;;;;;;0.44;100.00;99856.53;4985923;28;20240;-56
2021/12/04 00:29:21;;;;;;;15.90;8.27;;;;;;;0.48;100.00;99849.75;4989472;28;20238;-58
2021/12/04 00:31:49;;;;;;;15.50;9.10;;;;;;;0.48;100.00;99854.91;4985974;28;20234;-56
2021/12/04 00:34:18;;;;;;;11.33;8.30;;;;;;;0.54;100.00;99855.09;4988842;28;20312;-57
2021/12/04 00:37:02;;;;;;;12.57;8.47;;;;;;;0.52;100.00;99855.88;4978970;28;20732;-57
2021/12/04 00:50:35;;;;;;;9.57;8.57;;;;;;;0.44;100.00;99843.63;4938536;28;20295;-56
2021/12/04 00:53:01;;;;;;;13.13;9.67;;;;;;;0.51;100.00;99841.22;4990505;28;20297;-55
2021/12/04 00:55:27;;;;;;;9.80;7.83;;;;;;;0.51;100.00;99839.50;4988331;28;20248;-54
2021/12/04 00:57:54;;;;;;;13.80;9.57;;;;;;;0.48;100.00;99844.59;4985988;28;20240;-58
2021/12/04 01:00:20;;;;;;;10.13;8.53;;;;;;;0.45;100.00;99850.53;4988162;28;20240;-55
2021/12/04 01:02:47;;;;;;;14.13;10.17;;;;;;;0.45;100.00;99842.78;4985905;28;20232;-55
2021/12/04 01:05:13;;;;;;;12.97;8.53;;;;;;;0.50;100.00;99836.91;4997292;28;20302;-56
2021/12/04 01:07:41;;;;;;;12.50;9.53;;;;;;;0.58;100.00;99841.41;4995306;28;20264;-56
2021/12/04 01:10:09;;;;;;;11.27;8.20;;;;;;;0.58;100.00;99843.13;4986065;28;20293;-57
2021/12/04 01:12:36;;;;;;;12.93;8.97;;;;;;;0.70;100.00;99845.97;4984504;28;20281;-57
2021/12/04 01:15:02;;;;;;;8.80;7.90;;;;;;;0.62;100.00;99839.75;4988618;28;20232;-55
2021/12/04 01:17:29;;;;;;;13.87;8.70;;;;;;;0.60;100.00;99839.75;4977464;28;20234;-57
2021/12/04 01:19:55;;;;;;;12.53;8.93;;;;;;;0.64;100.00;99851.03;4989476;28;20236;-56
2021/12/04 01:22:22;;;;;;;11.27;8.30;;;;;;;0.62;100.00;99837.19;4984026;28;20720;-57
2021/12/04 01:24:50;;;;;;;12.00;8.50;;;;;;;0.63;100.00;99842.41;4987561;28;20276;-56
2021/12/04 01:27:16;;;;;;;9.80;8.80;;;;;;;0.63;100.00;99828.59;4983604;28;20260;-57
2021/12/04 01:29:42;;;;;;;11.23;8.93;;;;;;;0.48;100.00;99835.13;4993547;28;20233;-55
2021/12/04 01:32:09;;;;;;;11.87;9.23;;;;;;;0.54;100.00;99830.97;4980016;28;20742;-58
2021/12/04 01:34:36;;;;;;;11.50;9.13;;;;;;;0.62;100.00;99827.72;4996266;28;20245;-57
2021/12/04 01:37:02;;;;;;;14.20;9.73;;;;;;;0.62;100.00;99832.00;4986880;28;20320;-57
2021/12/04 01:39:28;;;;;;;11.53;10.17;;;;;;;0.57;100.00;99838.78;4990809;28;20260;-58
2021/12/04 01:41:56;;;;;;;11.77;10.00;;;;;;;0.63;100.00;99833.75;4983170;28;20293;-56
2021/12/04 01:44:22;;;;;;;11.23;9.80;;;;;;;0.53;100.00;99831.78;4985776;28;20769;-57
2021/12/04 01:46:49;;;;;;;14.37;9.03;;;;;;;0.60;100.00;99833.72;4990352;28;20310;-57
2021/12/04 01:49:15;;;;;;;14.67;9.30;;;;;;;0.54;100.00;99821.50;4985675;28;20236;-57
2021/12/04 01:51:42;;;;;;;10.97;9.17;;;;;;;0.61;100.00;99823.41;4992953;28;20707;-57
2021/12/04 01:54:08;;;;;;;15.70;9.53;;;;;;;0.68;100.00;99832.19;4980655;28;20230;-57
2021/12/04 01:56:34;;;;;;;12.27;9.10;;;;;;;0.63;100.00;99826.00;4984352;28;20309;-57
2021/12/04 01:59:02;;;;;;;10.43;8.83;;;;;;;0.66;100.00;99824.38;4986157;28;20232;-57
2021/12/04 02:01:31;;;;;;;13.43;9.87;;;;;;;0.65;100.00;99829.50;4985250;28;20265;-57
2021/12/04 02:03:57;;;;;;;10.47;9.57;;;;;;;0.65;100.00;99827.81;4989059;28;20243;-57
2021/12/04 02:06:24;;;;;;;12.20;10.20;;;;;;;0.61;100.00;99814.78;4989302;28;20758;-56
2021/12/04 02:08:51;;;;;;;11.10;9.77;;;;;;;0.66;100.00;99813.16;4989465;28;20237;-57
2021/12/04 02:11:17;;;;;;;11.53;10.33;;;;;;;0.66;100.00;99814.03;4986050;28;20314;-56
2021/12/04 02:13:44;;;;;;;14.23;8.90;;;;;;;0.61;100.00;99812.19;4985500;28;20259;-56
2021/12/04 02:16:19;;;;;;;12.07;10.57;;;;;;;0.62;100.00;99806.19;4982150;28;20591;-56
2021/12/04 02:18:45;;;;;;;12.87;10.33;;;;;;;0.61;100.00;99814.78;4977754;28;20898;-56
2021/12/04 02:21:13;;;;;;;14.00;9.97;;;;;;;0.62;100.00;99807.06;4992547;28;20885;-56
2021/12/04 02:23:40;;;;;;;10.63;9.53;;;;;;;0.64;100.00;99813.16;4979051;28;20331;-56
2021/12/04 02:26:06;;;;;;;15.47;11.17;;;;;;;0.63;100.00;99803.66;4985230;28;20777;-55
2021/12/04 02:28:33;;;;;;;11.47;10.07;;;;;;;0.64;100.00;99804.53;4980835;28;20752;-56
2021/12/04 02:31:00;;;;;;;19.17;10.77;;;;;;;0.73;100.00;99807.31;4991236;28;20232;-56
2021/12/04 02:33:26;;;;;;;14.07;10.50;;;;;;;0.71;100.00;99803.84;4983048;28;20295;-56
2021/12/04 02:35:54;;;;;;;12.87;10.27;;;;;;;0.71;100.00;99785.75;4986897;28;20711;-56
2021/12/04 02:38:23;;;;;;;11.87;9.07;;;;;;;0.74;100.00;99805.59;4986251;28;20224;-56
2021/12/04 02:40:50;;;;;;;11.87;9.63;;;;;;;0.78;100.00;99797.09;4989901;28;20873;-56
2021/12/04 02:43:16;;;;;;;10.40;9.37;;;;;;;0.76;100.00;99793.59;4980722;28;20267;-56
2021/12/04 02:45:44;;;;;;;12.13;9.13;;;;;;;0.79;100.00;99784.22;4985065;28;20756;-57
2021/12/04 02:48:10;;;;;;;12.63;9.43;;;;;;;0.82;100.00;99789.44;4981841;28;20237;-56
2021/12/04 02:50:37;;;;;;;12.57;9.43;;;;;;;0.75;100.00;99781.53;4982736;28;20225;-55
2021/12/04 02:53:03;;;;;;;15.80;11.53;;;;;;;0.75;100.00;99777.22;4978654;28;20229;-55
2021/12/04 02:55:31;;;;;;;10.73;8.37;;;;;;;0.81;100.00;99781.66;4984600;28;20245;-55
2021/12/04 02:57:57;;;;;;;14.57;9.30;;;;;;;0.83;100.00;99779.97;4977637;28;20247;-54
2021/12/04 03:00:26;;;;;;;14.77;9.17;;;;;;;0.76;100.00;99767.75;4992081;28;20842;-57
2021/12/04 03:02:54;;;;;;;13.93;10.33;;;;;;;0.75;100.00;99766.03;4983756;28;20276;-55
2021/12/04 03:05:23;;;;;;;9.90;8.90;;;;;;;0.80;100.00;99765.28;4997564;28;20233;-55
2021/12/04 03:07:50;;;;;;;11.27;9.87;;;;;;;0.73;100.00;99763.41;4983282;28;20302;-55
2021/12/04 03:10:16;;;;;;;11.70;8.97;;;;;;;0.77;100.00;99759.16;4988182;28;20398;-55
2021/12/04 03:12:44;;;;;;;11.10;9.07;;;;;;;0.78;100.00;99761.81;4984744;28;20705;-55
2021/12/04 03:15:10;;;;;;;10.73;9.20;;;;;;;0.81;100.00;99756.72;4982744;28;20289;-56
2021/12/04 03:17:37;;;;;;;12.60;10.70;;;;;;;0.81;100.00;99756.72;4983015;28;20654;-55
2021/12/04 03:20:05;;;;;;;10.60;9.03;;;;;;;0.82;100.00;99747.25;4981939;28;20232;-57
2021/12/04 03:22:31;;;;;;;11.07;9.87;;;;;;;0.91;100.00;99753.50;4976853;28;20270;-55
2021/12/04 03:24:58;;;;;;;12.37;9.00;;;;;;;0.89;100.00;99750.00;4981640;28;20233;-56
2021/12/04 03:27:27;;;;;;;11.07;9.90;;;;;;;0.87;100.00;99754.25;4983813;28;20238;-54
2021/12/04 03:29:57;;;;;;;11.97;9.80;;;;;;;0.82;100.00;99750.69;4988043;28;20237;-55
2021/12/04 03:40:51;;;;;;;11.97;9.83;;;;;;;0.86;100.00;99749.06;4982705;28;20295;-56
2021/12/04 03:43:17;;;;;;;11.97;10.50;;;;;;;0.87;100.00;99749.06;4982813;28;20914;-55
2021/12/04 03:45:48;;;;;;;11.50;9.30;;;;;;;0.98;100.00;99743.25;4997760;28;20707;-56
2021/12/04 03:48:28;;;;;;;10.80;9.70;;;;;;;0.91;100.00;99753.50;4979687;28;20246;-56
2021/12/04 03:50:55;;;;;;;13.23;9.03;;;;;;;0.92;100.00;99750.06;4976070;28;20241;-55
2021/12/04 03:53:21;;;;;;;12.83;9.10;;;;;;;0.91;100.00;99748.31;4986282;28;20272;-57
2021/12/04 03:55:49;;;;;;;10.47;9.20;;;;;;;0.96;100.00;99745.84;4981816;28;20705;-57
2021/12/04 03:58:15;;;;;;;10.10;8.33;;;;;;;1.04;100.00;99743.41;4983020;28;20861;-56
2021/12/04 04:00:42;;;;;;;9.73;8.17;;;;;;;1.09;100.00;99736.59;4983392;28;20245;-56
2021/12/04 04:03:10;;;;;;;11.03;8.83;;;;;;;1.12;100.00;99741.84;4980044;28;20489;-56
2021/12/04 04:05:36;;;;;;;9.60;8.07;;;;;;;1.13;100.00;99735.84;4991496;28;20292;-56
2021/12/04 04:08:03;;;;;;;9.93;8.43;;;;;;;1.12;100.00;99739.25;4983273;28;20248;-56
2021/12/04 04:10:29;;;;;;;10.20;8.37;;;;;;;1.14;100.00;99743.63;4982196;28;20230;-55
2021/12/04 04:12:55;;;;;;;9.63;8.57;;;;;;;1.14;100.00;99742.75;4984205;28;20238;-54
2021/12/04 04:15:22;;;;;;;11.33;8.37;;;;;;;1.17;100.00;99740.25;4984985;28;20295;-56
2021/12/04 04:17:49;;;;;;;9.73;8.73;;;;;;;1.17;100.00;99729.91;4988639;23;20240;-52
2021/12/04 04:20:19;;;;;;;14.23;8.20;;;;;;;1.25;100.00;99738.69;4980714;28;20259;-54
2021/12/04 04:22:46;;;;;;;8.50;7.60;;;;;;;1.31;100.00;99731.06;4987285;28;20716;-54
2021/12/04 04:25:14;;;;;;;9.70;8.40;;;;;;;1.27;100.00;99736.13;4971820;28;20252;-52
2021/12/04 04:27:40;;;;;;;10.87;8.43;;;;;;;1.30;100.00;99734.50;4981123;28;20294;-52
2021/12/04 04:30:13;;;;;;;9.93;8.20;;;;;;;1.30;100.00;99728.41;4978597;28;20233;-52
2021/12/04 04:32:39;;;;;;;10.03;8.83;;;;;;;1.33;100.00;99728.47;4990936;28;20233;-55
2021/12/04 04:35:10;;;;;;;11.17;8.60;;;;;;;1.25;100.00;99724.88;4986991;28;20235;-54
2021/12/04 04:37:44;;;;;;;11.93;8.90;;;;;;;1.25;100.00;99720.56;4989772;28;20248;-54
2021/12/04 04:40:39;;;;;;;11.07;9.03;;;;;;;1.23;100.00;99721.38;4983316;28;20238;-54
2021/12/04 04:59:43;;;;;;;12.63;9.93;;;;;;;1.17;100.00;99716.97;4976404;28;20241;-54
2021/12/04 05:11:06;;;;;;;14.30;11.83;;;;;;;1.21;100.00;99703.28;4984783;28;20654;-54
2021/12/04 05:13:33;;;;;;;13.43;11.37;;;;;;;1.26;100.00;99704.22;4989058;28;20654;-52
2021/12/04 05:16:01;;;;;;;16.17;11.90;;;;;;;1.17;100.00;99704.06;4984930;28;20281;-53
2021/12/04 05:18:39;;;;;;;14.03;11.87;;;;;;;1.12;100.00;99703.06;4984047;28;20249;-54
2021/12/04 05:21:10;;;;;;;14.83;12.27;;;;;;;1.17;100.00;99704.06;4994639;28;20229;-55
2021/12/04 05:23:38;;;;;;;14.33;11.70;;;;;;;1.17;100.00;99714.38;4986145;28;20248;-53
2021/12/04 05:26:07;;;;;;;12.87;11.23;;;;;;;1.17;100.00;99707.50;4987282;28;20272;-53
2021/12/04 05:28:34;;;;;;;14.67;11.23;;;;;;;1.15;100.00;99696.25;4991025;28;20244;-53
2021/12/04 05:31:01;;;;;;;12.63;10.40;;;;;;;1.27;100.00;99699.94;4987599;28;20259;-55
2021/12/04 05:33:27;;;;;;;18.87;13.10;;;;;;;1.20;100.00;99701.53;4986485;28;20331;-55
2021/12/04 05:35:54;;;;;;;14.00;11.57;;;;;;;1.21;100.00;99700.69;4987155;28;20298;-54
2021/12/04 05:38:21;;;;;;;13.03;11.63;;;;;;;1.22;100.00;99702.41;4998022;28;20249;-54
2021/12/04 05:40:48;;;;;;;14.00;10.87;;;;;;;1.16;100.00;99702.31;4996078;28;20247;-54
2021/12/04 05:43:16;;;;;;;13.80;11.87;;;;;;;1.19;100.00;99699.75;5002020;28;20680;-55
2021/12/04 05:45:46;;;;;;;13.03;10.43;;;;;;;1.24;100.00;99705.91;4996081;28;20759;-54
2021/12/04 05:48:15;;;;;;;13.33;11.30;;;;;;;1.14;100.00;99698.81;4989105;28;20270;-53
2021/12/04 05:50:59;;;;;;;13.33;11.40;;;;;;;1.14;100.00;99698.81;4993654;28;20712;-53
2021/12/04 05:53:27;;;;;;;13.93;11.43;;;;;;;1.10;100.00;99692.72;4993216;28;20242;-56
2021/12/04 05:55:54;;;;;;;16.70;11.57;;;;;;;1.12;100.00;99690.16;4990392;28;20278;-54
2021/12/04 05:58:23;;;;;;;16.27;13.17;;;;;;;1.10;100.00;99687.53;4988495;28;20706;-55
2021/12/04 06:00:50;;;;;;;13.03;11.03;;;;;;;1.18;100.00;99690.28;4981491;28;20226;-54
2021/12/04 06:03:17;;;;;;;16.53;12.90;;;;;;;1.12;100.00;99685.88;4978926;28;20244;-56
2021/12/04 06:05:44;;;;;;;14.90;12.47;;;;;;;1.10;100.00;99686.69;4985668;28;20266;-56
2021/12/04 06:08:10;;;;;;;15.53;12.43;;;;;;;1.14;100.00;99689.34;4999394;28;20238;-55
2021/12/04 06:10:36;;;;;;;13.90;11.80;;;;;;;1.12;100.00;99688.47;4990556;28;20307;-55
2021/12/04 06:13:03;;;;;;;15.93;12.00;;;;;;;1.05;100.00;99688.28;4989522;28;20833;-55
2021/12/04 06:15:31;;;;;;;17.03;11.83;;;;;;;1.11;100.00;99693.59;4982284;28;20228;-55
2021/12/04 06:17:57;;;;;;;12.57;11.27;;;;;;;1.08;100.00;99690.94;4987147;28;20267;-55
2021/12/04 06:23:08;;;;;;;13.13;10.47;;;;;;;1.04;100.00;99700.34;4984371;28;20240;-55
2021/12/04 06:25:35;;;;;;;13.03;10.17;;;;;;;1.03;100.00;99701.19;4982191;28;20230;-55
2021/12/04 06:28:01;;;;;;;12.67;9.33;;;;;;;1.16;100.00;99707.50;4985902;28;20680;-54
2021/12/04 06:30:33;;;;;;;10.40;9.30;;;;;;;1.02;100.00;99703.72;4979241;28;20322;-55
2021/12/04 06:33:01;;;;;;;11.43;9.77;;;;;;;1.01;100.00;99702.84;4986137;28;20292;-55
2021/12/04 06:35:27;;;;;;;14.40;10.63;;;;;;;1.00;100.00;99708.88;4995409;28;20245;-55
2021/12/04 06:37:54;;;;;;;9.93;8.90;;;;;;;1.05;100.00;99699.47;4996151;28;20253;-54
2021/12/04 06:40:25;;;;;;;11.77;9.90;;;;;;;1.04;100.00;99702.06;4981282;28;20259;-55
2021/12/04 06:42:52;;;;;;;11.73;9.43;;;;;;;1.06;100.00;99697.81;4987464;28;20236;-55
2021/12/04 06:45:18;;;;;;;11.83;10.30;;;;;;;1.04;100.00;99689.13;4987041;28;20658;-55
2021/12/04 06:47:50;;;;;;;12.40;9.73;;;;;;;1.04;100.00;99694.28;4987813;28;20260;-54
2021/12/04 06:50:24;;;;;;;12.03;10.40;;;;;;;1.05;100.00;99693.44;4980860;28;20329;-55
2021/12/04 06:52:51;;;;;;;11.50;9.30;;;;;;;1.11;100.00;99693.59;4985654;28;20311;-54
2021/12/04 06:55:19;;;;;;;13.43;8.90;;;;;;;1.11;100.00;99693.59;4985520;28;20248;-58
2021/12/04 06:57:46;;;;;;;11.70;10.10;;;;;;;1.03;100.00;99693.44;4986423;28;20237;-56
2021/12/04 07:00:13;;;;;;;11.30;9.73;;;;;;;1.06;100.00;99705.56;4980572;28;20244;-55
2021/12/04 07:02:40;;;;;;;10.97;9.53;;;;;;;1.07;100.00;99699.53;4993198;28;20267;-55
2021/12/04 07:05:07;;;;;;;13.67;10.30;;;;;;;1.18;100.00;99698.03;4999858;28;20239;-53
2021/12/04 07:07:35;;;;;;;13.40;10.27;;;;;;;1.11;100.00;99698.75;5010786;28;20237;-54
2021/12/04 07:10:01;;;;;;;10.97;9.67;;;;;;;1.15;100.00;99687.63;4992092;28;20297;-55
2021/12/04 07:12:27;;;;;;;13.73;9.27;;;;;;;1.20;100.00;99698.94;4994056;28;20233;-55
2021/12/04 07:14:54;;;;;;;11.13;9.17;;;;;;;1.30;100.00;99706.03;5004695;28;20232;-54
2021/12/04 07:17:20;;;;;;;13.13;9.90;;;;;;;1.21;100.00;99699.81;4991427;28;20310;-55
2021/12/04 07:19:46;;;;;;;12.90;9.80;;;;;;;1.30;100.00;99702.56;4993575;28;20296;-54
2021/12/04 07:22:13;;;;;;;13.10;9.70;;;;;;;1.29;100.00;99704.28;4995068;28;20256;-58
2021/12/04 07:24:41;;;;;;;12.47;8.90;;;;;;;1.35;100.00;99694.06;5008648;28;20277;-56
2021/12/04 07:27:07;;;;;;;11.63;9.90;;;;;;;1.29;100.00;99693.94;4997256;28;20257;-58
2021/12/04 07:29:33;;;;;;;17.27;9.87;;;;;;;1.31;100.00;99692.25;4995240;28;20244;-54
2021/12/04 07:32:00;;;;;;;13.83;9.10;;;;;;;1.30;100.00;99695.72;4996343;28;20232;-54
2021/12/04 07:34:26;;;;;;;9.77;8.57;;;;;;;1.27;100.00;99698.22;5003064;28;20224;-56
2021/12/04 07:36:52;;;;;;;9.50;8.50;;;;;;;1.40;100.00;99699.31;5007094;28;20256;-55
2021/12/04 07:39:19;;;;;;;8.70;7.90;;;;;;;1.42;100.00;99700.22;5003479;28;20541;-57
2021/12/04 07:41:46;;;;;;;9.90;7.77;;;;;;;1.40;100.00;99691.56;5012058;28;21569;-54
2021/12/04 07:44:13;;;;;;;8.67;7.70;;;;;;;1.55;100.00;99697.03;4998454;28;20669;-55
2021/12/04 07:46:41;;;;;;;9.40;8.50;;;;;;;1.37;100.00;99701.84;4999869;28;20315;-57
2021/12/04 07:49:08;;;;;;;8.47;7.57;;;;;;;1.58;100.00;99706.53;5003330;28;20240;-55
2021/12/04 07:51:34;;;;;;;9.40;7.83;;;;;;;1.55;100.00;99701.34;5009302;28;20224;-55
2021/12/04 07:54:01;;;;;;;10.20;8.20;;;;;;;1.42;100.00;99701.09;5019491;28;20262;-57
2021/12/04 07:56:27;;;;;;;8.40;7.03;;;;;;;1.38;100.00;99703.59;4992028;28;20240;-55
2021/12/04 07:58:55;;;;;;;7.80;7.00;;;;;;;1.37;100.00;99705.31;5003928;28;20268;-54
2021/12/04 08:01:22;;;;;;;11.70;7.73;;;;;;;1.43;100.00;99702.81;5009251;28;20228;-56
2021/12/04 08:03:48;;;;;;;8.37;7.57;;;;;;;1.40;100.00;99712.25;5005876;28;20244;-54
2021/12/04 08:06:15;;;;;;;8.40;7.17;;;;;;;1.45;100.00;99718.41;5010281;28;20272;-55
2021/12/04 08:08:41;;;;;;;9.23;7.60;;;;;;;1.62;100.00;99709.22;4994350;28;20272;-55
2021/12/04 08:11:08;;;;;;;7.97;7.13;;;;;;;1.70;100.00;99711.97;5012092;28;20232;-56
2021/12/04 08:13:34;;;;;;;7.07;6.40;;;;;;;1.69;100.00;99710.22;5020854;28;20275;-55
2021/12/04 08:16:02;;;;;;;8.10;6.73;;;;;;;1.79;100.00;99700.88;5009296;28;20232;-56
2021/12/04 08:18:28;;;;;;;6.53;5.93;;;;;;;1.74;100.00;99712.88;5003888;28;20241;-55
2021/12/04 08:20:54;;;;;;;10.07;6.50;;;;;;;1.87;100.00;99710.53;5011753;28;20225;-55
2021/12/04 08:23:21;;;;;;;9.43;6.47;;;;;;;1.70;100.00;99711.97;5011017;28;20226;-57
2021/12/04 08:25:48;;;;;;;7.20;6.10;;;;;;;1.79;100.00;99711.22;5001022;28;20243;-54
2021/12/04 08:28:15;;;;;;;7.27;6.57;;;;;;;1.71;100.00;99712.81;4990468;28;20249;-55
2021/12/04 08:30:42;;;;;;;8.77;6.53;;;;;;;1.58;100.00;99716.88;5003544;28;20229;-59
2021/12/04 08:33:10;;;;;;;7.17;6.10;;;;;;;1.64;100.00;99717.88;5000008;28;20794;-55
2021/12/04 08:35:39;;;;;;;11.67;6.60;;;;;;;1.73;100.00;99714.59;5011156;28;20239;-54
2021/12/04 08:38:06;;;;;;;6.53;5.57;;;;;;;1.64;100.00;99711.84;5018210;28;20227;-55
2021/12/04 08:40:33;;;;;;;8.47;6.67;;;;;;;1.67;100.00;99709.31;5011656;28;20245;-61
2021/12/04 08:43:00;;;;;;;11.70;7.40;;;;;;;1.67;100.00;99719.66;5007720;28;20234;-55
2021/12/04 08:45:27;;;;;;;6.83;6.13;;;;;;;1.72;100.00;99714.56;5016046;28;20224;-55
2021/12/04 08:47:54;;;;;;;9.73;6.70;;;;;;;1.84;100.00;99715.66;5012343;28;20229;-56
2021/12/04 08:50:25;;;;;;;8.50;6.83;;;;;;;1.78;100.00;99725.91;5007499;28;20224;-56
2021/12/04 08:52:51;;;;;;;9.80;7.00;;;;;;;1.72;100.00;99724.91;5017782;28;20221;-59
2021/12/04 08:55:18;;;;;;;6.97;6.27;;;;;;;1.90;100.00;99722.66;5025747;28;20236;-56
2021/12/04 08:57:45;;;;;;;11.40;7.87;;;;;;;1.87;100.00;99728.66;5000132;28;20241;-56
2021/12/04 09:00:16;;;;;;;8.23;6.63;;;;;;;1.87;100.00;99726.06;4999419;28;20229;-55
2021/12/04 09:02:43;;;;;;;8.83;6.87;;;;;;;1.89;100.00;99724.38;4994774;28;20230;-54
2021/12/04 09:05:11;;;;;;;7.27;6.57;;;;;;;1.81;100.00;99725.94;5004328;28;20677;-59
2021/12/04 09:07:39;;;;;;;11.83;7.63;;;;;;;1.88;100.00;99730.41;5005153;28;20257;-55
2021/12/04 09:10:07;;;;;;;11.93;6.63;;;;;;;1.85;100.00;99726.88;5004270;28;20320;-57
2021/12/04 09:12:33;;;;;;;8.30;6.53;;;;;;;1.85;100.00;99726.88;5001382;28;20301;-55
2021/12/04 09:15:02;;;;;;;11.00;7.83;;;;;;;1.88;100.00;99729.53;5024250;28;20255;-57
2021/12/04 09:17:28;;;;;;;7.57;6.40;;;;;;;1.98;100.00;99734.03;5008294;28;20232;-54
2021/12/04 09:19:55;;;;;;;11.77;8.30;;;;;;;1.98;100.00;99734.03;5016698;28;20235;-54
2021/12/04 09:22:27;;;;;;;10.20;8.47;;;;;;;1.94;100.00;99737.41;4984671;28;20233;-55
2021/12/04 09:24:56;;;;;;;8.37;7.10;;;;;;;2.03;100.00;99741.84;4983785;28;20833;-55
2021/12/04 09:27:37;;;;;;;9.90;8.07;;;;;;;2.08;100.00;99735.94;4984663;28;20341;-56
2021/12/04 09:30:13;;;;;;;10.37;7.87;;;;;;;1.94;100.00;99736.53;4995179;28;20254;-57
2021/12/04 09:33:18;;;;;;;10.73;8.60;;;;;;;1.97;100.00;99734.00;4974892;28;20244;-54
2021/12/04 09:36:20;;;;;;;9.73;8.17;;;;;;;1.94;100.00;99731.34;4983355;28;20384;-56
2021/12/04 10:00:50;;;;;;;12.13;9.80;;;;;;;2.04;100.00;99717.72;4986059;28;20612;-56
2021/12/04 10:03:36;;;;;;;12.13;9.53;;;;;;;2.06;100.00;99716.88;4985861;28;21044;-56
2021/12/04 10:06:24;;;;;;;11.80;9.07;;;;;;;1.96;100.00;99698.59;4988746;28;20234;-56
2021/12/04 10:12:23;;;;;;;10.60;9.50;;;;;;;2.02;100.00;99693.53;4987142;28;20228;-56
2021/12/04 10:20:50;;;;;;;12.13;8.93;;;;;;;2.07;100.00;99687.59;4989321;23;20240;-54
2021/12/04 10:23:34;;;;;;;14.13;10.67;;;;;;;2.19;100.00;99686.03;4962848;28;20241;-54
2021/12/04 10:34:16;;;;;;;12.90;10.30;;;;;;;1.92;100.00;99680.41;4964709;28;20363;-54
2021/12/04 10:36:43;;;;;;;12.43;10.37;;;;;;;1.96;100.00;99693.41;4967968;28;20248;-55
2021/12/04 10:39:12;;;;;;;11.77;9.83;;;;;;;1.85;100.00;99682.88;4966472;28;20244;-55
2021/12/04 10:41:41;;;;;;;12.27;9.63;;;;;;;1.88;100.00;99665.69;4966323;28;20248;-54
2021/12/04 10:44:13;;;;;;;11.80;9.93;;;;;;;1.85;100.00;99664.75;4971166;28;20301;-55
2021/12/04 10:46:52;;;;;;;13.77;11.23;;;;;;;1.94;100.00;99653.72;4965770;28;20325;-54
2021/12/04 10:49:39;;;;;;;11.23;9.27;;;;;;;2.28;100.00;99655.09;4964910;28;20245;-54
2021/12/04 10:52:13;;;;;;;12.03;9.47;;;;;;;2.18;100.00;99654.09;4965928;28;20651;-54
2021/12/04 10:54:40;;;;;;;11.27;9.00;;;;;;;2.23;100.00;99647.25;4964013;28;20240;-55
2021/12/04 10:57:32;;;;;;;16.23;11.27;;;;;;;2.27;100.00;99643.84;4963968;28;20226;-54
2021/12/04 11:00:03;;;;;;;12.47;8.73;;;;;;;2.24;100.00;99638.63;4959005;28;20233;-55
2021/12/04 11:02:38;;;;;;;13.33;8.43;;;;;;;2.13;100.00;99637.59;4965505;28;20955;-55
2021/12/04 11:05:24;;;;;;;11.73;9.60;;;;;;;2.11;100.00;99642.78;4959517;28;20235;-55
2021/12/04 11:18:37;;;;;;;11.00;8.83;;;;;;;2.06;100.00;99628.88;4962851;28;20242;-53
2021/12/04 11:19:32;;;;;;;11.43;10.00;;;;;;;2.37;100.00;99611.19;4963367;28;20292;-55
2021/12/04 11:22:18;;;;;;;13.03;9.70;;;;;;;2.31;100.00;99613.69;4960151;28;20234;-56
2021/12/04 11:25:11;;;;;;;10.70;9.30;;;;;;;2.26;100.00;99610.19;4966016;28;20241;-56
2021/12/04 11:28:16;;;;;;;10.03;8.57;;;;;;;2.24;100.00;99607.56;4965336;28;20356;-56
2021/12/04 11:36:30;;;;;;;10.80;9.47;;;;;;;2.23;100.00;99592.00;4973252;28;20240;-56
2021/12/04 11:39:09;;;;;;;10.77;9.50;;;;;;;2.30;100.00;99592.13;4971676;28;20316;-54
2021/12/04 11:41:38;;;;;;;10.67;8.63;;;;;;;2.32;100.00;99585.25;4972979;28;20245;-54
2021/12/04 11:44:08;;;;;;;11.43;9.03;;;;;;;2.34;100.00;99591.31;4971918;28;20225;-57
2021/12/04 11:46:43;;;;;;;10.53;9.10;;;;;;;2.28;100.00;99587.75;4967095;28;20708;-54
2021/12/04 11:49:16;;;;;;;12.27;10.93;;;;;;;2.32;100.00;99590.44;4973839;28;20268;-54
2021/12/04 11:51:56;;;;;;;12.20;9.60;;;;;;;2.42;100.00;99590.53;4981236;28;20242;-57
2021/12/04 11:54:24;;;;;;;11.57;9.60;;;;;;;2.74;100.00;99585.75;4984849;28;20276;-55
2021/12/04 11:56:59;;;;;;;11.60;8.00;;;;;;;2.82;100.00;99587.59;4988574;28;20241;-54
2021/12/04 11:59:30;;;;;;;10.10;9.00;;;;;;;2.65;100.00;99583.94;4985119;28;20237;-55
2021/12/04 12:01:57;;;;;;;10.90;9.43;;;;;;;2.60;100.00;99577.84;4984843;28;20248;-54
2021/12/04 12:04:33;;;;;;;15.73;11.17;;;;;;;2.60;100.00;99580.44;4972327;28;20310;-54
2021/12/04 12:07:10;;;;;;;14.13;11.87;;;;;;;2.49;100.00;99579.41;4968385;28;20252;-54
2021/12/04 12:09:39;;;;;;;13.87;10.07;;;;;;;2.45;100.00;99573.31;4967863;28;20711;-55
2021/12/04 12:12:07;;;;;;;12.93;10.93;;;;;;;2.60;100.00;99560.56;4970453;28;20334;-55
2021/12/04 12:14:38;;;;;;;11.23;10.10;;;;;;;2.44;100.00;99569.00;4972977;28;20257;-54
2021/12/04 12:17:05;;;;;;;14.40;10.43;;;;;;;2.49;100.00;99563.84;4976037;28;20233;-56
2021/12/04 12:19:38;;;;;;;11.43;9.73;;;;;;;2.67;100.00;99564.09;4985044;28;20240;-57
2021/12/04 12:22:13;;;;;;;12.27;10.23;;;;;;;2.65;100.00;99562.34;4986996;28;20240;-58
2021/12/04 12:27:31;;;;;;;13.40;10.53;;;;;;;2.57;100.00;99557.06;4989913;28;20245;-54
2021/12/04 12:32:56;;;;;;;11.67;10.50;;;;;;;2.34;100.00;99552.44;4989801;28;20264;-58
2021/12/04 12:38:10;;;;;;;10.27;8.87;;;;;;;2.57;100.00;99554.47;4991567;28;20263;-55
2021/12/04 12:40:38;;;;;;;11.90;9.33;;;;;;;2.54;100.00;99554.44;4988058;28;20237;-58
2021/12/04 12:43:15;;;;;;;12.90;10.27;;;;;;;2.37;100.00;99549.91;4987845;28;20240;-58
2021/12/04 12:45:52;;;;;;;8.73;7.83;;;;;;;2.43;100.00;99558.63;4980355;28;20293;-55
2021/12/04 12:48:18;;;;;;;11.83;9.77;;;;;;;2.45;100.00;99559.50;4968578;28;20302;-54
2021/12/04 12:50:48;;;;;;;10.37;9.27;;;;;;;2.97;100.00;99555.78;4967922;28;20248;-55
2021/12/04 12:53:18;;;;;;;9.90;7.67;;;;;;;3.26;100.00;99553.47;4968200;28;20331;-54
2021/12/04 12:55:48;;;;;;;9.67;7.73;;;;;;;3.43;100.00;99548.44;4971006;28;20825;-55
2021/12/04 12:58:21;;;;;;;9.50;8.50;;;;;;;3.32;100.00;99535.38;4967190;28;20261;-56
2021/12/04 13:11:55;;;;;;;10.63;7.80;;;;;;;2.46;100.00;99551.75;4968512;28;20261;-54
2021/12/04 13:14:23;;;;;;;9.10;7.70;;;;;;;2.27;100.00;99553.22;4968798;28;20237;-53
2021/12/04 13:16:52;;;;;;;8.77;7.40;;;;;;;2.22;100.00;99554.03;4973344;28;20288;-53
2021/12/04 13:19:21;;;;;;;9.33;7.20;;;;;;;2.11;100.00;99559.94;4979798;28;20630;-54
2021/12/04 13:21:49;;;;;;;8.90;7.07;;;;;;;2.17;100.00;99564.31;4983166;28;20664;-55
2021/12/04 13:24:18;;;;;;;8.23;7.43;;;;;;;2.32;100.00;99554.16;4977158;28;20249;-53
2021/12/04 13:26:47;;;;;;;6.73;6.03;;;;;;;3.13;100.00;99567.19;4981026;28;20238;-55
2021/12/04 13:29:16;;;;;;;7.37;6.67;;;;;;;3.35;100.00;99558.75;4994760;28;20238;-56
2021/12/04 13:31:43;;;;;;;6.00;5.37;;;;;;;3.55;100.00;99560.66;4987925;28;20233;-56
2021/12/04 13:34:12;;;;;;;7.77;6.00;;;;;;;3.43;99.65;99553.63;4987986;28;20230;-55
2021/12/04 13:36:39;;;;;;;5.27;4.77;;;;;;;3.56;98.76;99552.00;4978548;28;20237;-54